Create Custom Reports and Graphics: Custom Report

Bell Hill-West

Current Conditions

8/9/22 3:15 AM (-07:00)
Updated Every 15 Minutes
Temp 53.4 °F   0.2
RH 77 %   6
Dew Pt 46.5 °F   2.1
Wet Bulb 50.3 °F   1.3
Wind Dir S | 181 °
Wind Spd 2.0 mph   0.5
Wind Gust 3.4 mph   0.3
Solar Rad 0 W/m2   0
BatVolt 12.7 V   0.0

Today & Yesterday

Bell Hill-West

8/9/22 3:15 AM (-07:00)
Updated Every 15 Minutes
Daily Max Temp 57.3 °F   0.4
Time of Max Temp 0111
Daily Min Temp 53.3 °F   0.1
Time of Min Temp 0311
Daily Max Wind 3.8 mph   0.3
Time of Max Wind 0101
Max Wind Dir S | 190 °
Daily Rain 0.00 In
Daily ETo 0.000 in   0.000
Yest MaxT 87.0 °F
Yest MinT 50.1 °F
Yest MaxGst 16.2 mph
Yest Rain 0.00 In
Yest ETo 0.24 In

Last 48 Hours

Bell Hill-West

Hourly Data | America/Los_Angeles
as of 8/9/22 3:28 AM PDT
Date & Time Temp (°F) RH (%) Dew Pt (°F) Wet Bulb (°F) Wind Dir (°) Wind Spd (mph) Wind Gust (mph) Wind Gst Dir (°) Solar Rad (W/m2) Latest Rain (In) Daily Rain (In) Daily Min Temp (°F) Daily Max Temp (°F) Daily ETo (in)
8/9/22 - 0300 54.8 75 47.2 51.3 S | 185 1.8 3.4 S | 181 0 0.00 0.00 53.5 57.3 0.000
8/9/22 - 0200 56.6 73 48.2 52.6 S | 184 2.6 3.8 S | 190 0 0.00 0.00 55.9 57.3 0.000
8/9/22 - 0100 58.9 70 49.0 54.0 S | 190 1.4 4.8 S | 170 0 0.00 0.00 50.1 87.0 0.241
8/9/22 - 0000 62.4 64 49.9 55.7 S | 174 1.8 4.4 SSE | 168 0 0.00 0.00 50.1 87.0 0.241
8/8/22 - 2300 64.2 61 50.6 56.8 S | 187 0.7 3.4 S | 178 0 0.00 0.00 50.1 87.0 0.241
8/8/22 - 2200 68.4 55 51.6 58.6 SSW | 204 0.3 4.4 SSW | 196 0 0.00 0.00 50.1 87.0 0.241
8/8/22 - 2100 73.4 46 51.3 59.8 SSW | 198 2.8 9.1 SSW | 201 2 0.00 0.00 50.1 87.0 0.241
8/8/22 - 2000 77.7 40 51.6 61.0 SW | 233 4.8 11.8 SW | 233 94 0.00 0.00 50.1 87.0 0.240
8/8/22 - 1900 82.2 34 50.7 61.4 WSW | 242 6.3 12.8 WSW | 244 283 0.00 0.00 50.1 87.0 0.236
8/8/22 - 1800 85.6 29 49.6 61.5 SW | 234 6.0 12.5 W | 271 483 0.00 0.00 50.1 87.0 0.226
8/8/22 - 1700 86.2 28 49.0 61.3 WSW | 248 6.0 13.2 SSW | 193 664 0.00 0.00 50.1 86.9 0.209
8/8/22 - 1600 86.2 27 48.6 61.1 WSW | 248 6.6 13.8 S | 187 810 0.00 0.00 50.1 86.9 0.186
8/8/22 - 1500 85.7 27 47.9 60.7 WSW | 239 6.4 14.2 WSW | 256 907 0.00 0.00 50.1 86.6 0.159
8/8/22 - 1400 84.4 30 49.6 61.3 WSW | 248 7.1 16.2 WSW | 251 948 0.00 0.00 50.1 86.0 0.130
8/8/22 - 1300 83.9 30 48.8 60.8 WSW | 246 5.3 10.8 WSW | 247 938 0.00 0.00 50.1 84.4 0.100
8/8/22 - 1200 80.6 29 45.5 58.6 N | 7 3.6 9.1 NE | 50 873 0.00 0.00 50.1 83.1 0.071
8/8/22 - 1100 76.1 40 49.9 59.8 N | 350 3.1 7.4 NNW | 331 752 0.00 0.00 50.1 79.7 0.046
8/8/22 - 1000 71.6 52 53.0 60.3 N | 360 1.9 5.8 NNE | 25 584 0.00 0.00 50.1 74.0 0.025
8/8/22 - 0900 66.6 59 51.8 58.2 NE | 54 0.2 4.1 ENE | 65 390 0.00 0.00 50.1 69.7 0.011
8/8/22 - 0800 56.5 74 48.1 52.5 S | 178 0.8 3.1 S | 183 186 0.00 0.00 50.1 62.8 0.002
8/8/22 - 0700 50.4 85 45.9 48.6 S | 181 2.8 4.1 S | 178 10 0.00 0.00 50.1 56.9 0.000
8/8/22 - 0600 51.0 84 46.4 49.2 S | 183 2.6 4.4 S | 173 0 0.00 0.00 50.4 56.9 0.000
8/8/22 - 0500 52.0 84 47.4 50.2 S | 188 2.5 4.4 S | 183 0 0.00 0.00 51.4 56.9 0.000
8/8/22 - 0400 53.4 83 48.3 51.4 S | 182 2.1 3.8 S | 171 0 0.00 0.00 52.4 56.9 0.000
8/8/22 - 0300 54.9 82 49.5 52.6 S | 184 2.1 3.4 S | 181 0 0.00 0.00 54.3 56.9 0.000
8/8/22 - 0200 55.7 82 50.3 53.5 S | 187 2.3 4.1 S | 182 0 0.00 0.00 54.7 56.9 0.000
8/8/22 - 0100 59.9 74 51.6 55.9 S | 179 2.3 4.8 S | 177 0 0.00 0.00 51.0 86.5 0.252
8/8/22 - 0000 62.0 71 52.4 57.2 S | 172 0.5 4.1 SSE | 164 0 0.00 0.00 51.0 86.5 0.252
8/7/22 - 2300 65.6 65 53.4 59.0 SSW | 192 0.7 4.1 S | 173 0 0.00 0.00 51.0 86.5 0.252
8/7/22 - 2200 68.7 59 53.7 60.1 SW | 214 2.6 8.8 SSW | 200 0 0.00 0.00 51.0 86.5 0.252
8/7/22 - 2100 72.3 52 53.6 60.9 SSW | 197 3.2 8.8 SSW | 204 3 0.00 0.00 51.0 86.5 0.252
8/7/22 - 2000 77.7 42 52.7 61.6 SSW | 198 6.9 14.2 SSW | 200 96 0.00 0.00 51.0 86.5 0.251
8/7/22 - 1900 82.2 31 48.2 60.2 SSW | 201 8.1 14.5 SSW | 196 287 0.00 0.00 51.0 86.5 0.246
8/7/22 - 1800 84.9 28 47.7 60.5 SSW | 202 8.1 13.8 SSW | 206 487 0.00 0.00 51.0 86.5 0.233
8/7/22 - 1700 85.8 26 47.2 60.4 SSW | 202 8.2 14.2 SW | 218 667 0.00 0.00 51.0 86.5 0.215
8/7/22 - 1600 85.7 27 48.1 60.8 SSW | 211 8.8 14.5 SSW | 200 812 0.00 0.00 51.0 86.3 0.191
8/7/22 - 1500 85.2 26 46.9 60.2 SSW | 200 9.3 14.8 SSW | 211 907 0.00 0.00 51.0 86.1 0.163
8/7/22 - 1400 84.6 28 47.4 60.3 SSW | 192 9.6 18.2 SSW | 202 948 0.00 0.00 51.0 85.6 0.132
8/7/22 - 1300 83.8 33 51.2 62.0 WSW | 246 6.9 15.8 SSW | 196 932 0.00 0.00 51.0 85.1 0.100
8/7/22 - 1200 82.0 35 51.9 62.0 N | 357 3.7 9.1 NNE | 30 864 0.00 0.00 51.0 84.9 0.071
8/7/22 - 1100 78.3 40 51.8 61.2 N | 7 2.4 7.8 NNE | 33 742 0.00 0.00 51.0 80.4 0.046
8/7/22 - 1000 73.6 46 51.2 59.8 N | 8 1.5 5.4 NNW | 329 581 0.00 0.00 51.0 76.5 0.025
8/7/22 - 0900 68.2 50 49.0 57.1 NW | 307 0.1 2.7 NW | 309 388 0.00 0.00 51.0 71.3 0.011
8/7/22 - 0800 58.4 64 46.1 52.1 S | 181 0.9 3.1 S | 182 185 0.00 0.00 51.0 64.1 0.003
8/7/22 - 0700 51.4 74 43.6 47.9 S | 183 2.2 3.8 S | 176 11 0.00 0.00 51.0 57.3 0.000
8/7/22 - 0600 52.0 71 42.8 47.8 S | 186 2.8 4.8 SSW | 196 0 0.00 0.00 51.4 57.3 0.000
8/7/22 - 0500 53.0 66 42.0 47.8 S | 186 3.1 4.4 S | 175 0 0.00 0.00 52.6 57.3 0.000
8/7/22 - 0400 53.9 64 41.9 48.1 S | 185 2.8 3.8 S | 185 0 0.00 0.00 53.3 57.3 0.000
8/7/22 - 0300 55.2 62 42.3 48.9 S | 185 3.0 4.4 S | 177 0 0.00 0.00 54.5 57.3 0.000
Max 86.2 85 53.7 62.0 - 9.6 18.2 - 948 0.00 0.00 55.9 87.0 0.252
Avg 69.5 53 48.9 56.8 - 3.7 8.0 - 323 0.00 - - - -
Min 50.4 26 41.9 47.8 - 0.1 2.7 - 0 0.00 0.00 50.1 56.9 0.000
Total - - - - - - - - - 0.00 - - - -

Last 30 Days

Bell Hill-West

Daily Data | America/Los_Angeles
as of 8/9/22 3:28 AM PDT
Date Daily Max Temp (°F) Time of Max Temp Daily Min Temp (°F) Time of Min Temp Daily Rain (In) Monthly Rain (In) Seasonal Rainfall (In) Wind Spd (mph) Daily Max Wind (mph) Time of Max Wind Max Wind Dir (°) Daily ETo (in) 7 Day ETo (in) Daily Solar Rad (Cal/cm2) Dew Pt (°F) Max RH (%) Min RH (%) Hrs 70-85F (hrs) Hrs > 95F (hrs) Powdery Mildew Stress (pts) GDDs (DL) GDDs (Mx/Mn) Seas GDDs (DL) Seas GDDs (Smpl) Hrs <= 32F (hrs) Hrs <= 28F (hrs) Chilling <=45F (hrs) Chill Hrs 32-45F (hrs) Utah Chilling (Units) Degree Hrs (hrs) Max 1 Min Rain (In) Max 1 Min Rain Time Max 15 Min Rain (In) Max 15 Min Precip Time Max 60 Min Rain (In) Max 60 Min Rain Time MinBV Day (V)
8/8/22 87.0 1705 50.1 0639 0.00 0.01 0.01 3.3 16.2 1347 WSW | 251 0.241 1.72 682 49.3 86 23 4.52 0.00 0 19.5 18.5 1,937 1,762 0.0 0.0 0.0 0.0 0.0 198.6 - - - - - - 12.6
8/7/22 86.5 1621 51.0 0610 0.00 0.01 0.01 4.2 18.2 1308 SSW | 202 0.252 1.54 680 48.4 81 24 5.36 0.00 0 20.0 18.8 1,918 1,743 0.0 0.0 0.0 0.0 0.0 203.6 - - - - - - 12.6
8/6/22 87.7 1421 55.1 0630 0.00 0.01 0.01 3.7 16.8 1610 S | 181 0.250 1.53 683 50.3 89 19 4.18 0.00 0 20.4 21.4 1,898 1,724 0.0 0.0 0.0 0.0 0.0 192.6 - - - - - - 12.6
8/5/22 88.9 1429 59.1 0616 0.00 0.01 0.01 4.4 21.2 1532 SSW | 197 0.253 1.48 672 47.6 81 16 5.38 0.00 0 23.0 24.0 1,877 1,703 0.0 0.0 0.0 0.0 -20.0 214.2 - - - - - - 12.6
8/4/22 94.0 1146 62.2 0623 0.00 0.01 0.01 4.4 19.2 1548 SSW | 210 0.280 1.48 653 48.0 69 12 3.38 0.00 10 28.6 28.1 1,854 1,679 0.0 0.0 0.0 0.0 -22.5 332.6 - - - - - - 12.6
8/3/22 96.9 1703 63.9 0401 0.00 0.01 0.01 3.7 15.5 1731 W | 261 0.210 1.47 537 53.4 68 23 4.04 2.87 20 28.4 30.4 1,826 1,651 0.0 0.0 0.0 0.0 -22.5 345.0 - - - - - - 12.7
8/2/22 94.3 1516 60.4 0545 0.00 0.01 0.01 4.1 17.5 1638 SSW | 203 0.233 1.52 618 53.8 88 24 3.71 0.00 30 26.6 27.4 1,797 1,621 0.0 0.0 0.0 0.0 -21.0 300.7 - - - - - - 12.7
8/1/22 81.0 1744 64.6 0101 0.01 0.01 0.01 1.3 9.5 1735 NE | 45 0.157 3.32 585 61.4 84 46 13.79 0.00 40 23.7 22.8 1,771 1,593 0.0 0.0 0.0 0.0 -24.0 209.3 0.01 1211 0.01 1225 0.01 1310 12.6
7/31/22 93.6 1521 67.5 0301 0.00 0.00 0.00 3.2 15.5 1854 SW | 221 0.686 3.85 - 59.0 73 27 6.21 0.00 20 29.8 30.6 1,747 1,570 0.0 0.0 0.0 0.0 -24.0 355.8 - - - - - - 12.6
7/30/22 96.4 1457 65.2 0618 0.00 0.00 0.00 3.0 14.5 1757 SW | 218 0.360 3.64 1,117 57.2 72 22 5.33 1.04 0 30.0 30.8 1,717 1,540 0.0 0.0 0.0 0.0 -24.0 359.3 - - - - - - 12.6
7/29/22 101.5 1337 63.5 0624 0.00 0.00 0.00 3.1 14.8 1603 SSW | 209 0.510 3.86 - 56.2 75 18 4.73 6.08 0 32.4 32.5 1,687 1,509 0.0 0.0 0.0 0.0 -23.0 418.8 - - - - - - 12.6
7/28/22 98.6 1505 61.0 0621 0.00 0.00 0.00 3.1 14.5 1407 WSW | 255 0.536 3.83 - 50.8 63 17 4.54 5.51 0 31.1 29.8 1,655 1,477 0.0 0.0 0.0 0.0 -22.0 396.6 - - - - - - 12.6
7/27/22 96.8 1621 58.0 0611 0.00 0.00 0.00 3.5 15.8 1719 SW | 235 0.505 3.92 - 47.2 74 11 2.69 1.56 0 27.8 27.4 1,624 1,447 0.0 0.0 0.0 0.0 -18.0 330.8 - - - - - - 12.6
7/26/22 95.9 1524 59.2 0612 0.00 0.00 0.00 3.8 17.5 1554 SSW | 207 0.596 4.01 - 50.8 70 14 4.57 0.46 0 27.5 27.5 1,596 1,419 0.0 0.0 0.0 0.0 -21.0 314.0 - - - - - - 12.6
7/25/22 95.8 1400 58.0 0632 0.00 0.00 0.00 4.1 17.5 1630 S | 182 0.720 3.89 - 47.0 62 13 2.81 1.39 0 27.2 26.9 1,568 1,392 0.0 0.0 0.0 0.0 -17.5 318.3 - - - - - - 12.6
7/24/22 96.8 1412 55.2 0622 0.00 0.00 0.00 4.1 19.2 1503 S | 175 0.497 3.64 - 43.3 63 7 2.50 2.99 0 27.5 26.0 1,541 1,365 0.0 0.0 0.0 0.0 -17.5 336.4 - - - - - - 12.6
7/23/22 96.2 1316 51.2 0629 0.00 0.00 0.00 3.6 17.2 1601 S | 180 0.604 3.52 - 40.4 66 8 3.00 2.08 0 24.8 23.6 1,514 1,339 0.0 0.0 0.0 0.0 -15.5 306.4 - - - - - - 12.6
7/22/22 93.4 1609 51.9 0619 0.00 0.00 0.00 3.4 14.8 1412 W | 280 0.509 3.27 - 35.3 54 7 2.74 0.00 0 25.0 22.6 1,489 1,315 0.0 0.0 0.0 0.0 0.0 288.7 - - - - - - 12.6
7/21/22 96.6 1436 51.9 0615 0.00 0.00 0.00 3.7 16.5 1616 W | 264 0.631 3.11 - 33.2 48 7 3.05 2.25 0 25.2 24.3 1,464 1,293 0.0 0.0 0.0 0.0 -15.5 309.0 - - - - - - 12.6
7/20/22 97.2 1551 50.5 0532 0.00 0.00 0.00 3.5 14.5 1255 NW | 311 0.601 2.79 - 36.8 56 7 2.64 4.08 0 25.8 23.8 1,439 1,268 0.0 0.0 0.0 0.0 -15.0 335.8 - - - - - - 12.6
7/19/22 95.5 1441 51.9 0621 0.00 0.00 0.00 3.7 15.2 1455 S | 183 0.491 2.50 - 36.3 53 8 2.42 0.09 0 25.3 23.7 1,413 1,245 0.0 0.0 0.0 0.0 -15.5 310.8 - - - - - - 12.6
7/18/22 95.6 1231 56.9 0628 0.00 0.00 0.00 4.1 17.2 1441 S | 178 0.434 2.36 1,131 40.3 60 7 2.66 0.39 10 27.1 26.2 1,388 1,221 0.0 0.0 0.0 0.0 -17.5 323.5 - - - - - - 12.6
7/17/22 97.5 1542 54.3 0624 0.00 0.00 0.00 3.4 13.8 1412 SSW | 199 0.358 2.26 949 44.3 71 10 3.53 3.65 20 27.1 25.9 1,360 1,195 0.0 0.0 0.0 0.0 -17.0 338.7 - - - - - - 12.6
7/16/22 99.0 1705 51.5 0604 0.00 0.00 0.00 3.1 12.5 1918 SW | 232 0.332 2.20 903 45.1 74 8 3.11 4.12 30 25.6 25.2 1,333 1,169 0.0 0.0 0.0 0.0 -15.5 325.3 - - - - - - 12.6
7/15/22 93.9 1521 50.5 0554 0.00 0.00 0.00 3.5 14.8 1404 SW | 219 0.316 2.15 868 45.3 76 13 3.27 0.00 40 22.7 22.2 1,308 1,144 0.0 0.0 0.0 0.0 0.0 268.5 - - - - - - 12.6
7/14/22 93.0 1501 56.3 0037 0.00 0.00 0.00 3.7 16.2 1729 WSW | 241 0.308 2.12 834 50.9 85 21 3.32 0.00 50 23.8 24.7 1,285 1,121 0.0 0.0 0.0 0.0 0.0 259.9 - - - - - - 12.6
7/13/22 89.2 1554 53.0 0605 0.00 0.00 0.00 3.3 14.5 1426 SW | 218 0.295 2.07 834 52.5 85 28 4.28 0.00 60 22.4 21.0 1,261 1,097 0.0 0.0 0.0 0.0 -17.0 237.8 - - - - - - 12.6
7/12/22 93.2 1447 56.1 0622 0.00 0.00 0.00 4.1 15.8 1810 SSW | 197 0.321 2.02 818 46.9 76 12 3.25 0.00 70 25.6 24.7 1,239 1,076 0.0 0.0 0.0 0.0 -17.0 287.9 - - - - - - 12.6
7/11/22 99.1 1407 59.1 0554 0.00 0.00 0.00 4.0 17.8 1845 SSW | 200 0.330 1.88 814 49.8 78 13 2.51 5.03 80 29.3 29.1 1,213 1,051 0.0 0.0 0.0 0.0 -18.5 364.1 - - - - - - 12.6
7/10/22 97.2 1647 52.8 0606 0.00 0.00 0.00 3.0 14.8 1713 WSW | 252 0.300 1.69 829 47.6 85 10 3.13 1.69 90 26.1 25.0 1,184 1,022 0.0 0.0 0.0 0.0 -17.5 329.0 - - - - - - 12.6
Max 101.5 - 67.5 - 0.01 0.01 0.01 4.4 21.2 - - 0.720 - 1,131 61.4 89 46 13.79 6.08 - 32.4 32.5 - - 0.0 0.0 0.0 0.0 0.0 418.8 - - - - - - 12.7
Avg - - - - - 0.00 - 3.6 - - - - - - 47.6 - - 4.02 1.51 - 26.0 25.5 - - 0.0 0.0 0.0 0.0 -15.3 - - - - - - - -
Min 81.0 - 50.1 - 0.00 0.00 0.00 1.3 9.5 - - 0.157 - 537 33.2 48 7 2.42 0.00 - 19.5 18.5 - - 0.0 0.0 0.0 0.0 -24.0 192.6 - - - - - - 12.6
Total - - - - - - - - - - - - - - - - - 120.65 45.29 - 779.6 764.9 - - 0.0 0.0 0.0 0.0 -458.5 - - - - - - - -

Bell Hill-West Climate Summary

Current Yeaer

Current Year | Showing 1/1/22 - 8/8/22
as of 8/9/22 3:28 AM PDT
Temperature (°F) Max Wind Gust (mph) Precip (in) Days
Month Days Avg High Avg Low Max Min Avg Max Total Daily Min Temp < 28 Daily Min Temp < 32 Daily Max Temp > 90 Daily Max Temp > 100 Daily Rain > 0.01 Daily Rain > 0.1
Jan 2022 31 60.2 31.8 68.6 23.8 10.8 26.6 0.39 9 19 0 0 4 1
Feb 2022 28 65.7 28.6 78.2 19.5 11.9 23.2 0.08 13 22 0 0 1 0
Mar 2022 31 67.1 34.9 83.9 26 15.7 24.9 0.58 7 9 0 0 5 3
Apr 2022 30 65.9 37.3 88.5 30.8 17.6 27.2 2 0 1 0 0 6 5
May 2022 31 73.9 41.4 94.4 30.6 17.9 23.9 0.31 0 2 2 0 3 2
Jun 2022 30 84.5 49.1 99.9 38.7 17.7 36 0.38 0 0 9 0 2 2
Jul 2022 31 91.6 54.7 101.5 47.9 15.9 20.9 0 0 0 21 1 0 0
Aug 2022 8 89.5 58.3 96.9 50.1 16.8 21.2 0.01 0 0 3 0 0 0
Total 220 - - - - - - 3.75 29 53 35 1 21 13
Average 27.5 73.4 40.5 73.4 40.5 15.4 - 0.47 3.6 6.6 4.4 0.1 2.6 1.6
Maximum 31 91.6 58.3 101.5 - - 36 2 13 22 21 1 6 5
Minimum 8 60.2 28.6 - 19.5 - - 0 0 0 0 0 0 0

Bell Hill-West Climate Summary

Last Year

Last Year | Showing 1/1/21 - 12/31/21
as of 8/9/22 3:28 AM PDT
Temperature (°F) Max Wind Gust (mph) Precip (in) Days
Month Days Avg High Avg Low Max Min Avg Max Total Daily Min Temp < 28 Daily Min Temp < 32 Daily Max Temp > 90 Daily Max Temp > 100 Daily Rain > 0.01 Daily Rain > 0.1
Jan 2021 31 56.2 33.9 74.9 20.1 13 31.3 3.55 5 12 0 0 13 5
Feb 2021 28 60.7 32.6 72.9 26.7 14.4 24.9 1.79 3 15 0 0 10 5
Mar 2021 31 61 32.2 77.4 26.6 16.5 29.2 1.87 2 17 0 0 6 5
Apr 2021 30 73 36.9 86.1 31.5 17.7 22.9 0.15 0 2 0 0 2 1
May 2021 31 80.7 44.1 101 33.8 17.9 21.2 0.01 0 0 2 1 0 0
Jun 2021 30 88.7 52.3 104.7 37.1 18.2 22.5 0 0 0 14 5 0 0
Jul 2021 31 96.4 57.5 105.9 51 16.7 20.9 0 0 0 29 7 0 0
Aug 2021 31 94.2 54.8 106.1 46.2 16.6 19.2 0 0 0 23 4 0 0
Sep 2021 30 88 49.3 99.3 38.2 15.6 24.2 0.2 0 0 16 0 3 1
Oct 2021 31 70.4 42.7 91.3 30.1 14.2 28.2 8.12 0 1 2 0 10 7
Nov 2021 30 64.5 37.2 73 27.5 8.6 17.8 1.63 1 6 0 0 7 5
Dec 2021 31 51.9 33.7 73.1 26.3 13.7 29.9 6.69 4 13 0 0 16 11
Total 365 - - - - - - 24.01 15 66 86 17 67 40
Average 30.4 73.9 42.3 73.9 42.3 15.3 - 2 1.2 5.5 7.2 1.4 5.6 3.3
Maximum 31 96.4 57.5 106.1 - - 31.3 8.12 5 17 29 7 16 11
Minimum 28 51.9 32.2 - 20.1 - - 0 0 0 0 0 0 0
Calm: 3.1%
Calm: 0.0%